Time;durP1;ratioP1;P1;durP2;ratioP2;P2;SDS_P1;SDS_P2;PMS_P1;PMS_P2;Temp;Humidity;BMP_temperature;BMP_pressure;BME280_temperature;BME280_humidity;BME280_pressure;Samples;Min_cycle;Max_cycle;Signal;HPM_P1;HPM_P2
2022/05/17 00:00:23;;;;;;;7.85;3.40;;;14.20;99.90;;;;;;5012469;28;20030;-67
2022/05/17 00:02:49;;;;;;;7.97;3.60;;;14.10;99.90;;;;;;5012644;28;20033;-67
2022/05/17 00:05:14;;;;;;;6.65;3.55;;;;;;;;;;5012416;28;20030;-68
2022/05/17 00:07:40;;;;;;;6.15;2.60;;;14.10;99.90;;;;;;5012756;28;20388;-67
2022/05/17 00:10:06;;;;;;;6.53;3.35;;;14.10;99.90;;;;;;5012153;28;20048;-67
2022/05/17 00:12:32;;;;;;;8.23;4.10;;;14.00;99.90;;;;;;5011998;28;20076;-67
2022/05/17 00:14:58;;;;;;;7.63;4.55;;;14.00;99.90;;;;;;5012087;28;20025;-67
2022/05/17 00:17:23;;;;;;;7.82;3.47;;;14.00;99.90;;;;;;5028493;28;20112;-67
2022/05/17 00:19:49;;;;;;;8.82;3.40;;;13.90;99.90;;;;;;5032049;28;20068;-67
2022/05/17 00:22:15;;;;;;;6.47;3.85;;;13.90;99.90;;;;;;5030656;28;20032;-67
2022/05/17 00:24:40;;;;;;;7.15;3.83;;;13.90;99.90;;;;;;5024244;28;20026;-67
2022/05/17 00:27:06;;;;;;;6.45;3.28;;;13.90;99.90;;;;;;5011505;28;20113;-67
2022/05/17 00:29:31;;;;;;;6.25;3.60;;;14.00;99.90;;;;;;5012214;28;20109;-67
2022/05/17 00:31:57;;;;;;;6.25;3.75;;;14.10;99.90;;;;;;5012150;28;20028;-67
2022/05/17 00:34:23;;;;;;;6.07;3.25;;;14.20;99.90;;;;;;5011865;28;20042;-67
2022/05/17 00:36:48;;;;;;;5.82;3.30;;;14.30;99.90;;;;;;5011943;28;20034;-67
2022/05/17 00:39:14;;;;;;;6.90;3.55;;;14.40;99.90;;;;;;5011754;28;20501;-67
2022/05/17 00:41:39;;;;;;;7.70;3.92;;;14.40;99.90;;;;;;5010325;28;20022;-67
2022/05/17 00:47:08;;;;;;;8.90;4.35;;;14.40;99.90;;;;;;5011748;28;20068;-68
2022/05/17 00:49:42;;;;;;;6.38;4.93;;;14.40;99.90;;;;;;5011798;28;20497;-67
2022/05/17 00:52:36;;;;;;;8.43;4.63;;;14.10;99.90;;;;;;5011612;28;20037;-67
2022/05/17 00:55:33;;;;;;;8.25;4.82;;;14.10;99.90;;;;;;5021368;28;20068;-67
2022/05/17 00:58:09;;;;;;;11.38;4.75;;;14.10;99.90;;;;;;5031039;28;20067;-67
2022/05/17 01:00:39;;;;;;;6.60;4.95;;;14.10;99.90;;;;;;5031614;28;20393;-67
2022/05/17 01:03:09;;;;;;;5.72;3.83;;;14.10;99.90;;;;;;5030898;28;20026;-67
2022/05/17 01:05:40;;;;;;;6.20;4.63;;;13.90;99.90;;;;;;5031358;28;20132;-68
2022/05/17 01:08:08;;;;;;;7.63;4.07;;;13.90;99.90;;;;;;5030792;28;20429;-67
2022/05/17 01:10:34;;;;;;;6.75;3.45;;;14.00;99.90;;;;;;5029577;28;20383;-67
2022/05/17 01:15:45;;;;;;;9.73;4.50;;;13.80;99.90;;;;;;5030726;28;20055;-67
2022/05/17 01:18:11;;;;;;;6.30;4.38;;;13.90;99.90;;;;;;5030524;28;20175;-70
2022/05/17 01:20:37;;;;;;;8.27;4.47;;;13.70;99.90;;;;;;5030581;28;20510;-67
2022/05/17 01:23:03;;;;;;;7.70;4.43;;;13.80;99.90;;;;;;5028821;28;20044;-67
2022/05/17 01:25:28;;;;;;;8.98;4.80;;;14.40;99.90;;;;;;5026922;28;20030;-69
2022/05/17 01:28:07;;;;;;;9.77;4.93;;;14.00;99.90;;;;;;5030232;28;20520;-70
2022/05/17 01:30:33;;;;;;;8.75;4.95;;;14.00;99.90;;;;;;5030572;28;20021;-67
2022/05/17 01:32:59;;;;;;;9.20;4.38;;;;;;;;;;5027831;28;20170;-67
2022/05/17 01:35:25;;;;;;;6.25;4.60;;;14.20;99.90;;;;;;5029043;28;20072;-68
2022/05/17 01:37:56;;;;;;;5.60;4.20;;;14.20;99.90;;;;;;5030045;28;20029;-66
2022/05/17 01:40:23;;;;;;;5.22;4.07;;;14.30;99.90;;;;;;5029381;28;20071;-67
2022/05/17 01:42:48;;;;;;;7.95;4.53;;;14.20;99.90;;;;;;5029937;28;20033;-67
2022/05/17 01:45:14;;;;;;;6.70;4.45;;;14.30;99.90;;;;;;5028473;28;20385;-67
2022/05/17 01:47:40;;;;;;;11.15;4.50;;;;;;;;;;5030521;28;20532;-67
2022/05/17 01:50:06;;;;;;;6.40;4.10;;;;;;;;;;5029432;28;20573;-67
2022/05/17 01:52:31;;;;;;;7.38;3.92;;;14.20;99.90;;;;;;5029469;28;20474;-67
2022/05/17 01:54:57;;;;;;;8.70;4.68;;;14.70;99.90;;;;;;5019700;28;20553;-67
2022/05/17 01:57:22;;;;;;;5.45;3.83;;;13.80;99.90;;;;;;5024380;28;20499;-67
2022/05/17 01:59:48;;;;;;;7.50;3.95;;;14.20;99.90;;;;;;5029395;28;20033;-67
2022/05/17 02:02:13;;;;;;;6.97;3.55;;;14.30;99.90;;;;;;5029520;28;20415;-67
2022/05/17 02:04:39;;;;;;;8.38;4.45;;;14.20;99.90;;;;;;5029666;28;20030;-67
2022/05/17 02:07:05;;;;;;;4.88;3.55;;;14.20;99.90;;;;;;5029166;28;20071;-67
2022/05/17 02:09:30;;;;;;;6.57;4.00;;;13.90;99.90;;;;;;5027793;28;20025;-67
2022/05/17 02:11:56;;;;;;;8.90;3.80;;;12.80;99.90;;;;;;5028009;28;20120;-67
2022/05/17 02:14:22;;;;;;;6.35;4.38;;;;;;;;;;5029250;28;20044;-67
2022/05/17 02:16:48;;;;;;;5.07;3.95;;;14.40;99.90;;;;;;5028957;28;20049;-67
2022/05/17 02:19:18;;;;;;;6.22;4.22;;;14.50;99.90;;;;;;5027483;28;20063;-67
2022/05/17 02:21:44;;;;;;;7.03;4.05;;;;;;;;;;5028706;28;20014;-67
2022/05/17 02:24:09;;;;;;;8.15;3.65;;;14.70;99.90;;;;;;5028512;28;20044;-67
2022/05/17 02:26:34;;;;;;;8.48;4.28;;;14.70;99.90;;;;;;5029103;28;20030;-67
2022/05/17 02:29:00;;;;;;;6.50;4.30;;;14.50;99.90;;;;;;5027364;28;20381;-67
2022/05/17 02:31:26;;;;;;;6.18;4.05;;;14.70;99.90;;;;;;5029378;28;20447;-67
2022/05/17 02:33:51;;;;;;;9.70;4.28;;;14.60;99.90;;;;;;5028966;28;20704;-67
2022/05/17 02:36:17;;;;;;;6.00;3.97;;;14.60;99.90;;;;;;5028962;28;20056;-67
2022/05/17 02:38:43;;;;;;;7.22;4.70;;;;;;;;;;5028668;28;20508;-67
2022/05/17 02:41:09;;;;;;;7.07;4.35;;;14.60;99.90;;;;;;5028817;28;20025;-67
2022/05/17 02:43:35;;;;;;;5.50;4.05;;;14.60;99.90;;;;;;5029180;28;20494;-67
2022/05/17 02:46:00;;;;;;;9.98;4.10;;;14.80;99.90;;;;;;5028303;28;20029;-67
2022/05/17 02:48:26;;;;;;;8.05;4.00;;;14.50;99.90;;;;;;5019804;28;20431;-67
2022/05/17 02:50:51;;;;;;;5.57;3.67;;;14.60;99.90;;;;;;5009346;28;20032;-67
2022/05/17 02:53:17;;;;;;;5.28;3.55;;;14.30;99.90;;;;;;5007092;28;20117;-67
2022/05/17 02:55:43;;;;;;;8.20;4.05;;;;;;;;;;5009208;28;20022;-67
2022/05/17 02:58:09;;;;;;;7.68;4.55;;;14.30;99.90;;;;;;5008697;28;20056;-67
2022/05/17 03:00:34;;;;;;;4.35;3.70;;;14.30;99.90;;;;;;5010440;28;20049;-67
2022/05/17 03:03:00;;;;;;;5.25;4.28;;;14.10;99.90;;;;;;5008561;28;20056;-66
2022/05/17 03:05:26;;;;;;;9.93;5.50;;;;;;;;;;5009807;28;20065;-67
2022/05/17 03:07:52;;;;;;;6.10;4.00;;;14.50;99.90;;;;;;5012829;28;20121;-67
2022/05/17 03:10:18;;;;;;;7.20;4.80;;;13.90;99.90;;;;;;5027928;28;20026;-67
2022/05/17 03:12:44;;;;;;;8.43;4.45;;;14.00;99.90;;;;;;5032633;28;20072;-67
2022/05/17 03:15:15;;;;;;;7.18;4.43;;;13.90;99.90;;;;;;5031033;28;20073;-68
2022/05/17 03:17:41;;;;;;;8.13;4.07;;;;;;;;;;5019440;28;20034;-67
2022/05/17 03:20:07;;;;;;;5.93;4.55;;;13.90;99.90;;;;;;5012595;28;20092;-67
2022/05/17 03:22:33;;;;;;;6.35;4.18;;;14.00;99.90;;;;;;5012726;28;20388;-67
2022/05/17 03:24:59;;;;;;;7.20;3.88;;;;;;;;;;5012669;28;20026;-67
2022/05/17 03:27:24;;;;;;;7.35;3.53;;;13.90;99.90;;;;;;5012982;28;20025;-67
2022/05/17 03:29:50;;;;;;;7.65;4.10;;;13.90;99.90;;;;;;5012606;28;20032;-67
2022/05/17 03:32:15;;;;;;;7.82;4.03;;;13.90;99.90;;;;;;5012490;28;20034;-67
2022/05/17 03:34:41;;;;;;;5.82;3.75;;;13.80;99.90;;;;;;5013988;28;20044;-67
2022/05/17 03:37:07;;;;;;;4.57;3.90;;;13.80;99.90;;;;;;5012031;28;20108;-67
2022/05/17 03:39:33;;;;;;;7.78;4.57;;;13.90;99.90;;;;;;5012781;28;20053;-67
2022/05/17 03:41:59;;;;;;;9.07;4.55;;;;;;;;;;5012376;28;20084;-67
2022/05/17 03:44:24;;;;;;;6.88;4.00;;;13.90;99.90;;;;;;5012570;28;20026;-67
2022/05/17 03:46:50;;;;;;;7.05;4.40;;;13.90;99.90;;;;;;5012542;28;20052;-67
2022/05/17 03:49:16;;;;;;;9.20;5.93;;;;;;;;;;5012072;28;20128;-69
2022/05/17 03:51:42;;;;;;;5.55;4.32;;;;;;;;;;5012145;28;20125;-67
2022/05/17 03:54:07;;;;;;;8.38;6.03;;;14.00;99.90;;;;;;5010524;28;20041;-67
2022/05/17 03:56:33;;;;;;;8.90;5.72;;;13.90;99.90;;;;;;5012378;28;20100;-67
2022/05/17 03:58:59;;;;;;;9.65;6.10;;;;;;;;;;5011865;28;20381;-67
2022/05/17 04:01:25;;;;;;;7.18;5.53;;;14.10;99.90;;;;;;5025049;28;20064;-67
2022/05/17 04:03:51;;;;;;;8.85;6.85;;;13.90;99.90;;;;;;5031886;28;20053;-67
2022/05/17 04:06:16;;;;;;;9.13;5.80;;;14.20;99.90;;;;;;5031198;28;20053;-68
2022/05/17 04:08:42;;;;;;;8.07;7.28;;;;;;;;;;5031359;28;20528;-67
2022/05/17 04:11:08;;;;;;;7.25;5.90;;;14.30;99.90;;;;;;5028424;28;20516;-67
2022/05/17 04:13:34;;;;;;;9.65;6.10;;;14.50;99.90;;;;;;5031297;28;20109;-67
2022/05/17 04:16:01;;;;;;;12.30;6.82;;;14.60;99.90;;;;;;5030683;28;20176;-67
2022/05/17 04:18:28;;;;;;;11.15;6.40;;;14.40;99.90;;;;;;5031194;28;20029;-67
2022/05/17 04:21:01;;;;;;;8.35;5.18;;;14.60;99.90;;;;;;5029853;28;20167;-67
2022/05/17 04:23:27;;;;;;;5.90;4.38;;;14.50;99.90;;;;;;5031694;28;20095;-67
2022/05/17 04:25:52;;;;;;;13.43;6.63;;;14.60;99.90;;;;;;5031459;28;20378;-67
2022/05/17 04:28:18;;;;;;;7.28;5.55;;;14.70;99.90;;;;;;5031218;28;20026;-67
2022/05/17 04:30:44;;;;;;;7.18;5.05;;;14.80;99.90;;;;;;5023897;28;20466;-69
2022/05/17 04:33:10;;;;;;;8.27;5.18;;;14.90;99.90;;;;;;5029778;28;20037;-67
2022/05/17 04:35:36;;;;;;;9.80;5.53;;;15.00;99.90;;;;;;5031211;28;20029;-67
2022/05/17 04:38:02;;;;;;;9.48;6.47;;;;;;;;;;5030981;28;20444;-67
2022/05/17 04:40:28;;;;;;;9.07;5.65;;;15.10;99.90;;;;;;5031370;28;20224;-67
2022/05/17 04:42:57;;;;;;;8.20;5.38;;;14.70;99.90;;;;;;5031073;28;20049;-67
2022/05/17 04:45:23;;;;;;;10.30;5.82;;;15.10;99.90;;;;;;5030988;28;20041;-69
2022/05/17 04:47:49;;;;;;;8.13;5.43;;;15.10;99.90;;;;;;5030546;28;20075;-67
2022/05/17 04:50:16;;;;;;;7.80;6.00;;;15.10;99.90;;;;;;5029382;28;20044;-67
2022/05/17 04:52:42;;;;;;;7.47;5.38;;;15.30;99.90;;;;;;5031040;28;20050;-67
2022/05/17 04:55:09;;;;;;;7.55;4.97;;;14.90;99.90;;;;;;5030952;28;20034;-67
2022/05/17 04:57:35;;;;;;;9.13;5.65;;;14.90;99.90;;;;;;5030997;28;20025;-67
2022/05/17 05:00:04;;;;;;;12.65;6.10;;;15.40;99.90;;;;;;5030503;28;20034;-67
2022/05/17 05:02:29;;;;;;;8.68;4.38;;;15.70;99.90;;;;;;5030470;28;20025;-66
2022/05/17 05:04:55;;;;;;;8.77;5.40;;;15.20;99.90;;;;;;5030656;28;20421;-67
2022/05/17 05:07:21;;;;;;;6.57;5.63;;;15.20;99.90;;;;;;5030648;28;20029;-68
2022/05/17 05:09:46;;;;;;;5.55;5.00;;;15.40;99.90;;;;;;5029047;28;20459;-68
2022/05/17 05:12:12;;;;;;;6.63;4.88;;;15.50;99.90;;;;;;5029776;28;20108;-67
2022/05/17 05:14:37;;;;;;;7.18;5.13;;;15.70;99.90;;;;;;5030420;28;20064;-68
2022/05/17 05:17:03;;;;;;;7.72;5.65;;;15.70;99.90;;;;;;5029552;28;20054;-67
2022/05/17 05:19:28;;;;;;;6.63;5.10;;;15.80;99.90;;;;;;5030573;28;20048;-67
2022/05/17 05:21:54;;;;;;;7.00;5.38;;;15.60;99.90;;;;;;5025517;28;20364;-67
2022/05/17 05:24:19;;;;;;;9.07;5.53;;;15.80;99.90;;;;;;5008875;28;20030;-68
2022/05/17 05:26:45;;;;;;;12.43;7.03;;;16.10;99.90;;;;;;5008981;28;20042;-67
2022/05/17 05:29:10;;;;;;;9.68;5.00;;;15.90;99.90;;;;;;5015589;28;20017;-67
2022/05/17 05:31:36;;;;;;;8.80;5.75;;;16.10;99.90;;;;;;5029919;28;20060;-68
2022/05/17 05:34:01;;;;;;;7.75;5.43;;;16.40;99.90;;;;;;5029643;28;20163;-68
2022/05/17 05:36:28;;;;;;;7.07;5.63;;;16.50;99.90;;;;;;5030259;28;20076;-68
2022/05/17 05:38:55;;;;;;;9.30;6.63;;;16.10;99.90;;;;;;5028471;28;20022;-67
2022/05/17 05:41:20;;;;;;;9.63;5.65;;;16.50;99.90;;;;;;5029957;28;20017;-68
2022/05/17 05:43:46;;;;;;;13.52;5.47;;;16.40;99.90;;;;;;5029809;28;20029;-68
2022/05/17 05:46:12;;;;;;;8.02;5.68;;;17.00;99.90;;;;;;5029456;28;20529;-68
2022/05/17 05:48:37;;;;;;;7.68;6.07;;;16.60;99.90;;;;;;5030174;28;20165;-68
2022/05/17 05:51:03;;;;;;;6.28;5.68;;;16.70;99.90;;;;;;5021695;28;20037;-68
2022/05/17 05:53:29;;;;;;;7.68;5.80;;;16.80;99.90;;;;;;5010292;28;20092;-67
2022/05/17 05:56:01;;;;;;;7.88;6.07;;;16.80;99.90;;;;;;5009964;28;20014;-68
2022/05/17 05:58:28;;;;;;;11.55;6.85;;;16.70;99.90;;;;;;5010390;28;20030;-68
2022/05/17 06:00:53;;;;;;;9.57;6.25;;;16.80;99.90;;;;;;5009328;28;20030;-68
2022/05/17 06:03:19;;;;;;;8.25;5.95;;;16.90;99.90;;;;;;5010914;28;20040;-68
2022/05/17 06:05:44;;;;;;;13.25;7.00;;;16.90;99.90;;;;;;5022073;28;20036;-69
2022/05/17 06:08:14;;;;;;;10.27;6.35;;;17.00;99.90;;;;;;5008118;28;20109;-68
2022/05/17 06:10:43;;;;;;;8.20;6.65;;;16.90;99.90;;;;;;5008456;28;20022;-68
2022/05/17 06:13:14;;;;;;;9.73;6.45;;;17.00;99.90;;;;;;5009425;28;20038;-74
2022/05/17 06:15:39;;;;;;;9.85;6.13;;;18.60;99.90;;;;;;5009082;28;20042;-74
2022/05/17 06:18:06;;;;;;;7.43;6.00;;;17.20;99.90;;;;;;5008978;28;20328;-75
2022/05/17 06:20:33;;;;;;;8.60;5.95;;;17.40;99.90;;;;;;5009687;28;20030;-74
2022/05/17 06:22:58;;;;;;;9.90;6.43;;;17.50;99.90;;;;;;5009320;28;20088;-74
2022/05/17 06:25:24;;;;;;;11.10;7.03;;;17.60;99.90;;;;;;5009641;28;20053;-74
2022/05/17 06:27:50;;;;;;;9.20;6.70;;;17.70;99.90;;;;;;5009330;28;20021;-75
2022/05/17 06:30:17;;;;;;;7.95;6.97;;;17.80;99.90;;;;;;5025217;28;20017;-75
2022/05/17 06:32:43;;;;;;;12.00;7.85;;;17.90;99.90;;;;;;5029112;28;20033;-75
2022/05/17 06:35:09;;;;;;;13.93;7.68;;;18.10;99.90;;;;;;5028862;28;20018;-75
2022/05/17 06:37:35;;;;;;;11.35;7.45;;;18.10;99.90;;;;;;5028982;28;20029;-75
2022/05/17 06:40:01;;;;;;;10.27;7.50;;;18.20;99.90;;;;;;5028478;28;20117;-75
2022/05/17 06:42:27;;;;;;;8.70;7.25;;;18.40;99.90;;;;;;5029070;28;20096;-75
2022/05/17 06:44:54;;;;;;;10.73;6.32;;;18.40;99.90;;;;;;5028212;28;20462;-75
2022/05/17 06:47:19;;;;;;;7.03;5.70;;;18.40;99.90;;;;;;5028688;28;20475;-75
2022/05/17 06:49:45;;;;;;;8.07;6.68;;;18.50;99.90;;;;;;5028812;28;20029;-75
2022/05/17 06:52:11;;;;;;;10.15;6.15;;;18.60;99.90;;;;;;5028579;28;20141;-75
2022/05/17 06:54:37;;;;;;;9.65;7.20;;;18.70;99.90;;;;;;5029052;28;20033;-75
2022/05/17 06:57:04;;;;;;;11.65;6.90;;;18.80;99.90;;;;;;5028231;28;20450;-75
2022/05/17 06:59:31;;;;;;;10.30;6.05;;;18.90;99.90;;;;;;5025400;28;20029;-75
2022/05/17 07:01:57;;;;;;;8.88;7.97;;;19.00;99.90;;;;;;5028562;28;20115;-75
2022/05/17 07:04:23;;;;;;;10.13;5.80;;;19.10;99.90;;;;;;5023372;28;20065;-75
2022/05/17 07:06:48;;;;;;;10.95;6.80;;;19.20;99.90;;;;;;5027791;28;20462;-75
2022/05/17 07:09:14;;;;;;;10.82;6.68;;;19.00;99.90;;;;;;5026918;28;20121;-74
2022/05/17 07:14:24;;;;;;;7.82;5.13;;;19.00;99.40;;;;;;5028502;28;20039;-74
2022/05/17 07:16:49;;;;;;;8.98;5.43;;;20.30;99.90;;;;;;5028090;28;20406;-74
2022/05/17 07:19:15;;;;;;;8.80;5.43;;;19.00;99.90;;;;;;5026464;28;20438;-75
2022/05/17 07:21:41;;;;;;;10.93;6.32;;;18.90;99.90;;;;;;5027731;28;20431;-74
2022/05/17 07:24:06;;;;;;;9.00;6.38;;;18.90;99.90;;;;;;5027893;28;20033;-74
2022/05/17 07:26:32;;;;;;;6.72;5.53;;;18.90;99.90;;;;;;5028480;28;20243;-75
2022/05/17 07:28:57;;;;;;;8.02;6.13;;;18.90;99.90;;;;;;5026584;28;20037;-74
2022/05/17 07:31:23;;;;;;;6.60;5.90;;;18.90;99.90;;;;;;5024949;28;20037;-75
2022/05/17 07:33:48;;;;;;;10.70;6.40;;;18.90;99.90;;;;;;5028048;28;20033;-74
2022/05/17 07:36:14;;;;;;;10.05;7.05;;;18.90;99.90;;;;;;5026441;28;20014;-74
2022/05/17 07:38:40;;;;;;;9.52;6.40;;;18.90;99.80;;;;;;5027000;28;20060;-74
2022/05/17 07:41:06;;;;;;;5.97;4.90;;;19.00;99.70;;;;;;5025408;28;20028;-74
2022/05/17 07:43:32;;;;;;;9.65;7.18;;;18.90;99.60;;;;;;5027433;28;20413;-73
2022/05/17 07:45:58;;;;;;;10.32;5.97;;;;;;;;;;5027811;28;20028;-73
2022/05/17 07:48:25;;;;;;;9.35;5.88;;;18.80;98.60;;;;;;5028043;28;20053;-73
2022/05/17 07:50:51;;;;;;;7.07;4.75;;;18.90;99.90;;;;;;5028954;28;20025;-74
2022/05/17 07:53:19;;;;;;;10.38;6.28;;;18.80;99.60;;;;;;5031717;28;20071;-74
2022/05/17 07:55:46;;;;;;;9.15;5.97;;;18.80;99.90;;;;;;5031668;28;20025;-74
2022/05/17 07:58:13;;;;;;;11.57;6.45;;;18.80;99.90;;;;;;5030234;28;20021;-74
2022/05/17 08:00:40;;;;;;;9.88;5.47;;;18.80;99.90;;;;;;5031470;28;20030;-73
2022/05/17 08:03:08;;;;;;;10.00;5.50;;;18.80;99.90;;;;;;5031282;28;20367;-73
2022/05/17 08:05:34;;;;;;;9.02;5.40;;;18.90;99.70;;;;;;5031843;28;20017;-74
2022/05/17 08:08:00;;;;;;;10.27;5.30;;;18.80;99.60;;;;;;5031000;28;20124;-74
2022/05/17 08:10:26;;;;;;;7.32;4.38;;;18.80;99.60;;;;;;5030566;28;20013;-74
2022/05/17 08:12:52;;;;;;;6.72;4.65;;;18.80;99.50;;;;;;5030998;28;20456;-73
2022/05/17 08:15:23;;;;;;;12.30;6.05;;;18.80;99.60;;;;;;5030567;28;20534;-73
2022/05/17 08:17:49;;;;;;;11.95;6.10;;;18.80;99.80;;;;;;5030265;28;20021;-74
2022/05/17 08:20:15;;;;;;;9.77;6.10;;;18.80;99.40;;;;;;5045340;28;20025;-74
2022/05/17 08:22:42;;;;;;;13.50;6.60;;;19.50;99.60;;;;;;5031066;28;20083;-73
2022/05/17 08:27:55;;;;;;;11.55;6.78;;;19.00;99.60;;;;;;5023392;28;20085;-74
2022/05/17 08:30:23;;;;;;;8.18;6.53;;;19.00;99.20;;;;;;5028291;28;20029;-74
2022/05/17 08:35:49;;;;;;;7.13;4.78;;;19.10;99.40;;;;;;5017876;28;20104;-74
2022/05/17 08:38:19;;;;;;;5.70;3.50;;;19.10;99.20;;;;;;5030726;28;20049;-73
2022/05/17 08:40:57;;;;;;;7.80;4.53;;;19.20;99.00;;;;;;5030466;28;20014;-74
2022/05/17 08:43:28;;;;;;;8.70;5.10;;;19.00;99.00;;;;;;5030999;28;20482;-74
2022/05/17 08:46:22;;;;;;;6.20;4.30;;;19.40;99.00;;;;;;5031177;28;20091;-74
2022/05/17 08:49:14;;;;;;;7.93;4.93;;;19.50;98.20;;;;;;5029147;28;20120;-74
2022/05/17 08:51:41;;;;;;;7.18;4.53;;;19.50;98.10;;;;;;5023526;28;20033;-74
2022/05/17 08:54:10;;;;;;;11.20;4.72;;;19.50;98.70;;;;;;5029666;28;20033;-73
2022/05/17 08:56:40;;;;;;;10.07;4.30;;;19.70;98.50;;;;;;5029177;28;20502;-74
2022/05/17 08:59:08;;;;;;;9.07;4.18;;;19.70;98.30;;;;;;5028965;28;20030;-74
2022/05/17 09:01:48;;;;;;;7.63;4.00;;;19.70;98.10;;;;;;5029819;28;20029;-74
2022/05/17 09:04:32;;;;;;;7.72;3.42;;;19.80;97.50;;;;;;5030029;28;20386;-75
2022/05/17 09:07:23;;;;;;;10.98;4.47;;;19.80;98.20;;;;;;5030245;28;20621;-74
2022/05/17 09:09:55;;;;;;;7.32;3.97;;;20.10;98.20;;;;;;5027671;28;20453;-74
2022/05/17 09:12:37;;;;;;;7.38;5.07;;;20.10;98.10;;;;;;5030014;28;20025;-75
2022/05/17 09:15:05;;;;;;;11.57;5.78;;;20.50;97.00;;;;;;5028938;28;20107;-74
2022/05/17 09:17:31;;;;;;;8.15;6.00;;;20.70;97.10;;;;;;5027694;28;20534;-74
2022/05/17 09:19:57;;;;;;;8.60;5.32;;;20.80;96.30;;;;;;5027531;28;20059;-75
2022/05/17 09:22:24;;;;;;;9.45;5.20;;;20.80;96.00;;;;;;5029930;28;20021;-74
2022/05/17 09:25:11;;;;;;;6.03;4.05;;;20.70;96.10;;;;;;5028254;28;20033;-74
2022/05/17 09:27:38;;;;;;;9.68;4.88;;;20.80;95.80;;;;;;5029957;28;20426;-74
2022/05/17 09:30:23;;;;;;;8.02;5.82;;;20.80;96.40;;;;;;5026822;28;20053;-74
2022/05/17 09:33:06;;;;;;;9.90;5.30;;;20.90;95.70;;;;;;5019664;28;20028;-75
2022/05/17 09:35:53;;;;;;;6.07;4.28;;;21.00;95.50;;;;;;5030123;28;20056;-74
2022/05/17 09:38:19;;;;;;;8.23;4.15;;;21.00;95.30;;;;;;5009514;28;20033;-74
2022/05/17 09:40:48;;;;;;;7.85;3.75;;;20.90;95.70;;;;;;5009609;28;20030;-74
2022/05/17 09:43:16;;;;;;;7.45;3.60;;;20.80;95.90;;;;;;5009800;28;20065;-74
2022/05/17 09:45:49;;;;;;;7.72;3.70;;;20.70;96.20;;;;;;5010071;28;20367;-74
2022/05/17 09:52:32;;;;;;;12.38;4.15;;;20.60;95.80;;;;;;5013008;28;20017;-75
2022/05/17 09:54:08;;;;;;;6.45;2.53;;;20.20;97.10;;;;;;5029038;28;20037;-74
2022/05/17 09:56:34;;;;;;;9.73;3.92;;;20.20;96.90;;;;;;5029537;28;20029;-74
2022/05/17 09:58:59;;;;;;;5.72;3.65;;;20.20;97.00;;;;;;5029078;28;20021;-74
2022/05/17 10:01:38;;;;;;;8.65;4.25;;;20.30;97.00;;;;;;5029459;28;20029;-75
2022/05/17 10:04:12;;;;;;;7.38;4.15;;;20.60;97.40;;;;;;5029033;28;20025;-74
2022/05/17 10:06:46;;;;;;;9.05;4.78;;;20.70;97.20;;;;;;5027372;28;20104;-75
2022/05/17 10:09:26;;;;;;;7.95;4.50;;;21.10;96.80;;;;;;5028411;28;20030;-74
2022/05/17 10:12:17;;;;;;;9.32;4.60;;;21.10;95.40;;;;;;5025742;28;20090;-73
2022/05/17 10:14:46;;;;;;;9.10;4.95;;;21.50;95.20;;;;;;5026425;28;20046;-74
2022/05/17 10:17:27;;;;;;;12.93;7.30;;;21.80;95.00;;;;;;5028166;28;20429;-75
2022/05/17 10:20:01;;;;;;;14.10;6.57;;;22.00;94.80;;;;;;5025608;28;20586;-75
2022/05/17 10:22:37;;;;;;;12.65;7.05;;;22.10;94.10;;;;;;5018634;28;20108;-75
2022/05/17 10:25:25;;;;;;;9.93;5.60;;;22.20;93.80;;;;;;5027875;28;20030;-75
2022/05/17 10:27:57;;;;;;;13.60;7.13;;;22.20;92.80;;;;;;5026533;28;20022;-75
2022/05/17 10:30:55;;;;;;;9.23;4.90;;;22.30;93.40;;;;;;5023308;28;20045;-75
2022/05/17 10:33:35;;;;;;;10.38;5.88;;;22.30;92.40;;;;;;5028622;28;20136;-74
2022/05/17 10:36:10;;;;;;;7.18;4.45;;;22.30;93.10;;;;;;5028109;28;20028;-75
2022/05/17 10:38:55;;;;;;;8.63;6.28;;;22.40;93.00;;;;;;5028397;28;20132;-74
2022/05/17 10:41:22;;;;;;;13.38;6.68;;;22.50;91.90;;;;;;5027960;28;20022;-75
2022/05/17 10:43:48;;;;;;;11.10;5.45;;;22.40;92.10;;;;;;5024727;28;20116;-74
2022/05/17 10:46:20;;;;;;;11.13;5.88;;;22.40;92.20;;;;;;5028178;28;20014;-74
2022/05/17 10:49:10;;;;;;;11.45;5.90;;;22.60;92.60;;;;;;5028576;28;20030;-74
2022/05/17 10:52:01;;;;;;;9.75;5.65;;;22.90;92.60;;;;;;5028203;28;20036;-76
2022/05/17 10:54:36;;;;;;;11.60;6.50;;;22.80;91.50;;;;;;5027934;28;20044;-74
2022/05/17 10:57:25;;;;;;;12.75;6.15;;;23.00;91.00;;;;;;5027625;28;20123;-75
2022/05/17 11:00:09;;;;;;;7.40;4.68;;;23.00;91.00;;;;;;5026128;28;20025;-74
2022/05/17 11:02:53;;;;;;;6.57;4.32;;;23.10;90.90;;;;;;5028275;28;20043;-73
2022/05/17 11:05:28;;;;;;;15.43;5.00;;;23.20;91.40;;;;;;5027353;28;20036;-74
2022/05/17 11:08:05;;;;;;;13.48;7.10;;;23.20;89.80;;;;;;5028086;28;20072;-75
2022/05/17 11:10:36;;;;;;;8.23;5.82;;;23.40;88.30;;;;;;5027869;28;20025;-74
2022/05/17 11:13:22;;;;;;;10.90;7.22;;;23.30;89.50;;;;;;5026054;28;20442;-74
2022/05/17 11:16:12;;;;;;;10.65;5.15;;;23.30;89.80;;;;;;5026666;28;20064;-74
2022/05/17 11:18:43;;;;;;;10.95;5.50;;;23.40;87.70;;;;;;5027633;28;20033;-74
2022/05/17 11:21:29;;;;;;;10.73;5.63;;;23.60;86.80;;;;;;5027248;28;20022;-74
2022/05/17 11:24:23;;;;;;;10.85;6.97;;;23.80;89.70;;;;;;5027713;28;20017;-74
2022/05/17 11:27:09;;;;;;;14.02;7.30;;;23.90;86.00;;;;;;5027816;28;20044;-74
2022/05/17 11:30:01;;;;;;;11.57;6.75;;;23.90;84.90;;;;;;5032381;28;20067;-73
2022/05/17 11:32:32;;;;;;;11.13;6.38;;;23.90;85.80;;;;;;5030943;28;20490;-73
2022/05/17 11:35:02;;;;;;;14.15;7.15;;;24.00;87.30;;;;;;5018186;28;20136;-73
2022/05/17 11:37:33;;;;;;;9.95;7.53;;;24.00;86.20;;;;;;5013064;28;20514;-73
2022/05/17 11:40:07;;;;;;;11.10;7.43;;;23.80;86.00;;;;;;5011491;28;20049;-73
2022/05/17 11:45:50;;;;;;;8.27;5.22;;;23.70;86.70;;;;;;5012286;28;20208;-74
2022/05/17 11:48:21;;;;;;;8.20;5.47;;;23.90;85.40;;;;;;5029511;28;20025;-74
2022/05/17 11:51:01;;;;;;;11.65;5.13;;;23.90;86.30;;;;;;5031473;28;20017;-74
2022/05/17 11:53:27;;;;;;;9.73;6.00;;;24.00;86.50;;;;;;5031198;28;20507;-74
2022/05/17 11:56:25;;;;;;;10.57;5.20;;;23.90;84.00;;;;;;5031025;28;20120;-74
2022/05/17 11:59:18;;;;;;;12.25;4.85;;;24.10;83.70;;;;;;5031718;28;20025;-74
2022/05/17 12:01:47;;;;;;;10.82;5.18;;;24.00;85.20;;;;;;4999980;28;20056;-73
2022/05/17 12:04:21;;;;;;;8.40;5.18;;;24.10;85.40;;;;;;5030157;28;20025;-74
2022/05/17 12:06:56;;;;;;;11.00;6.20;;;24.30;85.80;;;;;;5030717;28;20771;-74
2022/05/17 12:09:25;;;;;;;9.45;4.97;;;24.30;85.00;;;;;;5030761;28;20026;-74
2022/05/17 12:12:22;;;;;;;8.65;4.68;;;24.20;84.20;;;;;;5031156;28;20048;-74
2022/05/17 12:15:09;;;;;;;9.45;5.28;;;24.40;82.90;;;;;;5030616;28;20128;-74
2022/05/17 12:17:44;;;;;;;10.38;6.03;;;24.20;83.00;;;;;;5045336;28;20450;-74
2022/05/17 12:20:26;;;;;;;11.13;6.97;;;24.10;84.50;;;;;;5029894;28;20030;-73
2022/05/17 12:23:16;;;;;;;12.07;6.03;;;24.10;81.90;;;;;;5030636;28;20029;-74
2022/05/17 12:26:13;;;;;;;12.20;7.80;;;24.20;83.60;;;;;;5030497;28;20018;-73
2022/05/17 12:28:52;;;;;;;10.63;7.30;;;24.20;83.80;;;;;;5030591;28;20043;-74
2022/05/17 12:31:26;;;;;;;13.88;7.38;;;23.80;85.90;;;;;;5029829;28;20623;-73
2022/05/17 12:33:53;;;;;;;8.55;6.20;;;23.70;86.90;;;;;;5030217;28;20037;-73
2022/05/17 12:36:23;;;;;;;8.23;5.60;;;23.80;86.80;;;;;;5029765;28;20500;-74
2022/05/17 12:44:40;;;;;;;9.95;7.55;;;23.70;87.80;;;;;;5029699;28;20170;-74
2022/05/17 12:47:27;;;;;;;9.80;6.72;;;23.70;88.20;;;;;;5028684;28;20109;-73
2022/05/17 12:49:56;;;;;;;10.20;7.00;;;23.90;86.20;;;;;;5029589;28;20029;-73
2022/05/17 12:52:34;;;;;;;9.55;5.00;;;23.90;87.70;;;;;;5030231;28;20025;-72
2022/05/17 12:55:12;;;;;;;7.53;4.88;;;23.90;88.00;;;;;;5030242;28;20167;-72
2022/05/17 12:57:39;;;;;;;5.10;2.88;;;23.80;87.90;;;;;;5030712;28;20032;-73
2022/05/17 13:00:17;;;;;;;6.47;3.40;;;23.90;86.90;;;;;;5030245;28;20129;-73
2022/05/17 13:02:49;;;;;;;4.88;2.95;;;24.00;86.00;;;;;;5019148;28;20028;-74
2022/05/17 13:05:35;;;;;;;7.15;2.88;;;24.00;87.10;;;;;;5010511;28;20041;-73
2022/05/17 13:08:10;;;;;;;6.57;2.03;;;24.10;87.40;;;;;;5010353;28;20488;-77
2022/05/17 13:10:39;;;;;;;5.07;2.50;;;24.00;86.80;;;;;;5021596;28;20388;-78
2022/05/17 13:13:20;;;;;;;8.05;3.10;;;24.10;86.10;;;;;;5028350;28;20044;-71
2022/05/17 13:16:00;;;;;;;7.45;2.88;;;24.20;83.80;;;;;;5029456;28;20045;-71
2022/05/17 13:18:34;;;;;;;5.20;1.60;;;24.20;85.80;;;;;;5030372;28;20060;-73
2022/05/17 13:21:01;;;;;;;7.82;3.25;;;24.10;85.70;;;;;;5029184;28;20053;-73
2022/05/17 13:23:30;;;;;;;6.88;2.58;;;24.10;85.00;;;;;;5029905;28;20022;-74
2022/05/17 13:25:56;;;;;;;5.93;3.08;;;24.10;84.80;;;;;;5029409;28;20323;-71
2022/05/17 13:28:29;;;;;;;6.97;3.15;;;23.90;83.80;;;;;;5028500;28;20032;-75
2022/05/17 13:31:14;;;;;;;4.20;2.10;;;24.10;84.30;;;;;;5029412;28;20072;-76